Time;durP1;ratioP1;P1;durP2;ratioP2;P2;SDS_P1;SDS_P2;PMS_P1;PMS_P2;Temp;Humidity;BMP_temperature;BMP_pressure;BME280_temperature;BME280_humidity;BME280_pressure;Samples;Min_cycle;Max_cycle;Signal;HPM_P1;HPM_P2
2022/09/03 00:00:11;;;;;;;7.20;1.55;;;16.90;70.90;;;;;;5036477;28;20374;-61
2022/09/03 00:02:44;;;;;;;4.90;1.75;;;18.40;72.90;;;;;;5053936;28;20049;-61
2022/09/03 00:05:23;;;;;;;3.05;1.63;;;16.10;85.10;;;;;;5053400;28;20512;-61
2022/09/03 00:08:34;;;;;;;2.70;1.60;;;16.60;81.90;;;;;;5053681;28;20037;-61
2022/09/03 00:11:24;;;;;;;4.90;1.50;;;16.70;71.50;;;;;;5044957;28;20066;-61
2022/09/03 00:14:01;;;;;;;5.38;1.63;;;16.80;82.80;;;;;;5053459;28;20037;-61
2022/09/03 00:16:46;;;;;;;5.45;1.60;;;16.70;71.80;;;;;;5053295;28;20044;-61
2022/09/03 00:19:17;;;;;;;3.58;1.60;;;16.50;86.80;;;;;;5053158;28;20546;-60
2022/09/03 00:21:48;;;;;;;3.15;1.52;;;16.60;72.10;;;;;;5068786;28;20041;-61
2022/09/03 00:24:17;;;;;;;2.65;1.45;;;17.20;83.70;;;;;;5053344;28;20033;-61
2022/09/03 00:26:54;;;;;;;3.90;1.50;;;16.50;89.40;;;;;;5053118;28;20469;-60
2022/09/03 00:29:38;;;;;;;8.05;1.60;;;16.60;87.50;;;;;;5053478;28;20041;-61
2022/09/03 00:32:13;;;;;;;2.45;1.60;;;16.60;89.20;;;;;;5053536;28;20443;-61
2022/09/03 00:34:42;;;;;;;;;;;16.50;73.50;;;;;;5053405;28;20497;-61
2022/09/03 00:37:11;;;;;;;4.78;1.60;;;;;;;;;;5053098;28;20012;-57
2022/09/03 00:39:37;;;;;;;4.32;1.48;;;16.50;87.80;;;;;;5053021;28;20499;-57
2022/09/03 00:42:09;;;;;;;4.55;1.67;;;16.40;88.90;;;;;;5053040;28;20060;-57
2022/09/03 00:44:54;;;;;;;3.35;1.42;;;16.30;73.30;;;;;;5052882;28;20048;-57
2022/09/03 00:47:35;;;;;;;6.10;1.55;;;16.70;90.00;;;;;;5052968;28;20080;-57
2022/09/03 00:50:08;;;;;;;5.57;1.60;;;16.40;90.10;;;;;;5053133;28;20044;-57
2022/09/03 00:53:02;;;;;;;9.05;1.70;;;15.90;90.10;;;;;;5052727;28;20041;-57
2022/09/03 00:55:58;;;;;;;4.00;1.60;;;16.20;73.90;;;;;;5053002;28;20045;-58
2022/09/03 00:58:29;;;;;;;6.15;1.55;;;16.20;90.20;;;;;;5052573;28;20400;-57
2022/09/03 01:00:55;;;;;;;9.23;1.60;;;16.50;90.50;;;;;;5052379;28;20576;-57
2022/09/03 01:03:42;;;;;;;5.03;1.40;;;16.20;74.50;;;;;;5052822;28;20063;-58
2022/09/03 01:06:14;;;;;;;2.33;1.30;;;16.20;90.90;;;;;;5052471;28;20045;-58
2022/09/03 01:09:10;;;;;;;4.35;1.63;;;16.30;90.60;;;;;;5052764;28;20037;-59
2022/09/03 01:11:44;;;;;;;4.25;1.50;;;16.20;90.70;;;;;;5052787;28;20084;-58
2022/09/03 01:14:40;;;;;;;2.45;1.40;;;16.10;91.10;;;;;;5052867;28;20064;-58
2022/09/03 01:17:12;;;;;;;;;;;16.10;75.80;;;;;;5051825;28;20051;-58
2022/09/03 01:20:07;;;;;;;7.82;1.75;;;14.90;90.50;;;;;;5052347;28;19917;-58
2022/09/03 01:22:48;;;;;;;5.10;1.55;;;16.10;75.00;;;;;;5047695;28;20045;-57
2022/09/03 01:25:33;;;;;;;3.03;1.50;;;16.40;91.10;;;;;;5052397;28;20037;-58
2022/09/03 01:28:20;;;;;;;8.73;1.80;;;17.10;79.00;;;;;;5052664;28;20041;-57
2022/09/03 01:31:11;;;;;;;2.60;1.40;;;16.20;91.30;;;;;;5052553;28;20079;-57
2022/09/03 01:33:39;;;;;;;6.97;1.60;;;16.20;90.90;;;;;;5052641;28;20124;-58
2022/09/03 01:36:41;;;;;;;3.85;1.45;;;16.20;75.50;;;;;;5052617;28;20052;-58
2022/09/03 01:39:31;;;;;;;3.58;1.67;;;16.10;91.30;;;;;;5052845;28;20130;-58
2022/09/03 01:42:14;;;;;;;4.85;1.80;;;16.30;91.00;;;;;;5052789;28;20041;-58
2022/09/03 01:44:52;;;;;;;3.67;1.50;;;16.20;75.60;;;;;;5052242;28;20087;-57
2022/09/03 01:47:52;;;;;;;6.15;1.52;;;16.20;87.90;;;;;;5052424;28;20449;-57
2022/09/03 01:50:36;;;;;;;4.20;1.58;;;16.30;91.10;;;;;;5052319;28;20439;-57
2022/09/03 01:53:24;;;;;;;4.50;1.60;;;16.10;91.10;;;;;;5052086;28;20116;-57
2022/09/03 01:56:08;;;;;;;9.98;1.70;;;16.30;91.20;;;;;;5052489;28;20044;-57
2022/09/03 01:58:37;;;;;;;2.60;1.40;;;17.20;90.10;;;;;;5052444;28;20041;-57
2022/09/03 02:01:10;;;;;;;5.35;1.52;;;16.20;76.20;;;;;;5052054;28;20056;-57
2022/09/03 02:03:40;;;;;;;3.40;1.48;;;16.20;76.30;;;;;;5054789;28;20049;-57
2022/09/03 02:06:08;;;;;;;4.35;1.50;;;16.30;80.70;;;;;;5055923;28;20381;-58
2022/09/03 02:08:33;;;;;;;3.42;1.48;;;16.10;91.70;;;;;;5055746;28;20480;-57
2022/09/03 02:11:01;;;;;;;7.45;1.60;;;16.20;90.60;;;;;;5056208;28;20033;-58
2022/09/03 02:13:38;;;;;;;7.28;1.52;;;16.20;76.60;;;;;;5055628;28;20045;-57
2022/09/03 02:16:19;;;;;;;6.93;1.50;;;16.20;91.60;;;;;;5055932;28;20037;-57
2022/09/03 02:18:54;;;;;;;10.88;1.88;;;16.00;90.50;;;;;;5055846;28;20087;-57
2022/09/03 02:21:23;;;;;;;2.13;1.50;;;16.10;91.90;;;;;;5055645;28;20040;-57
2022/09/03 02:23:49;;;;;;;3.33;1.63;;;16.20;91.70;;;;;;5055437;28;20524;-57
2022/09/03 02:26:21;;;;;;;1.77;1.33;;;16.10;76.90;;;;;;5055462;28;20089;-57
2022/09/03 02:28:47;;;;;;;1.58;1.25;;;;;;;;;;5055708;28;20396;-57
2022/09/03 02:31:13;;;;;;;5.38;1.67;;;16.20;82.50;;;;;;5055301;28;20481;-57
2022/09/03 02:33:42;;;;;;;8.88;1.75;;;16.20;77.10;;;;;;5055644;28;20033;-57
2022/09/03 02:36:15;;;;;;;5.70;1.58;;;16.60;92.20;;;;;;5055282;28;20229;-58
2022/09/03 02:38:43;;;;;;;5.10;1.70;;;15.90;91.50;;;;;;5055139;28;20116;-57
2022/09/03 02:41:12;;;;;;;8.50;1.70;;;16.10;92.20;;;;;;5055138;28;20488;-58
2022/09/03 02:44:05;;;;;;;3.78;1.55;;;15.70;91.80;;;;;;5055125;28;20516;-58
2022/09/03 02:46:47;;;;;;;4.97;1.60;;;16.10;92.40;;;;;;5053169;28;20049;-57
2022/09/03 02:49:13;;;;;;;4.13;1.40;;;15.80;92.30;;;;;;5055521;28;20500;-58
2022/09/03 02:51:40;;;;;;;3.92;1.50;;;15.90;92.40;;;;;;5055161;28;20112;-58
2022/09/03 02:54:07;;;;;;;3.42;1.33;;;16.10;92.60;;;;;;5055114;28;20065;-57
2022/09/03 02:56:33;;;;;;;6.15;1.60;;;;;;;;;;5055180;28;20048;-57
2022/09/03 02:59:00;;;;;;;1.63;1.45;;;16.00;92.20;;;;;;5054965;28;20033;-57
2022/09/03 03:01:26;;;;;;;2.15;1.40;;;15.90;92.40;;;;;;5054586;28;20049;-57
2022/09/03 03:03:52;;;;;;;4.70;1.70;;;15.90;92.40;;;;;;5070055;28;20078;-57
2022/09/03 03:06:21;;;;;;;2.63;1.40;;;15.60;78.50;;;;;;5054768;28;20183;-57
2022/09/03 03:08:48;;;;;;;2.97;1.40;;;16.00;92.50;;;;;;5054777;28;20374;-57
2022/09/03 03:11:17;;;;;;;4.95;1.60;;;15.90;92.70;;;;;;5054561;28;20120;-57
2022/09/03 03:13:44;;;;;;;3.95;1.70;;;15.90;92.70;;;;;;5053682;28;20036;-57
2022/09/03 03:16:11;;;;;;;3.10;1.52;;;15.80;79.20;;;;;;5054244;28;20056;-59
2022/09/03 03:18:36;;;;;;;2.25;1.58;;;15.90;85.90;;;;;;5053581;28;20037;-57
2022/09/03 03:21:07;;;;;;;3.75;1.52;;;15.80;79.40;;;;;;5054631;28;20051;-57
2022/09/03 03:23:34;;;;;;;6.57;1.80;;;15.80;86.00;;;;;;5054398;28;20495;-57
2022/09/03 03:26:08;;;;;;;7.95;1.70;;;15.70;79.80;;;;;;5054295;28;20128;-57
2022/09/03 03:28:34;;;;;;;3.22;1.88;;;15.70;93.60;;;;;;5054512;28;20032;-57
2022/09/03 03:31:08;;;;;;;2.35;1.60;;;15.60;93.30;;;;;;5054066;28;20036;-57
2022/09/03 03:33:34;;;;;;;3.45;1.63;;;15.50;83.40;;;;;;5054173;28;20041;-59
2022/09/03 03:36:11;;;;;;;5.28;1.73;;;15.60;82.50;;;;;;5054445;28;20036;-57
2022/09/03 03:38:37;;;;;;;3.35;1.60;;;;;;;;;;5053023;28;20043;-58
2022/09/03 03:41:18;;;;;;;13.63;1.80;;;15.70;93.70;;;;;;5053933;28;20033;-58
2022/09/03 03:43:44;;;;;;;3.03;1.40;;;15.60;94.00;;;;;;5052674;28;20052;-57
2022/09/03 03:46:11;;;;;;;3.35;1.50;;;15.80;93.80;;;;;;5053774;28;20048;-57
2022/09/03 03:48:37;;;;;;;5.88;1.75;;;15.60;81.30;;;;;;5052974;28;20037;-58
2022/09/03 03:51:06;;;;;;;4.40;1.92;;;15.70;94.10;;;;;;5054110;28;20036;-57
2022/09/03 03:53:34;;;;;;;5.68;1.52;;;15.00;93.90;;;;;;5054119;28;20079;-58
2022/09/03 03:56:01;;;;;;;4.38;1.70;;;14.70;94.00;;;;;;5053528;28;20493;-57
2022/09/03 03:58:30;;;;;;;4.13;1.80;;;14.90;94.10;;;;;;5053801;28;20158;-57
2022/09/03 04:01:07;;;;;;;2.67;1.80;;;15.50;94.30;;;;;;5053384;28;20064;-58
2022/09/03 04:03:33;;;;;;;3.88;1.73;;;16.30;92.30;;;;;;5053602;28;20193;-58
2022/09/03 04:06:00;;;;;;;2.65;1.60;;;15.50;94.90;;;;;;5053650;28;20162;-58
2022/09/03 04:08:27;;;;;;;3.90;1.60;;;14.80;94.50;;;;;;5053685;28;20041;-58
2022/09/03 04:10:53;;;;;;;4.82;1.58;;;15.40;91.50;;;;;;5053673;28;20111;-58
2022/09/03 04:13:19;;;;;;;4.90;1.70;;;15.60;95.40;;;;;;5053773;28;20041;-61
2022/09/03 04:15:45;;;;;;;2.38;1.52;;;15.40;95.40;;;;;;5053668;28;20534;-61
2022/09/03 04:18:11;;;;;;;3.63;1.67;;;15.50;95.20;;;;;;5053450;28;20080;-61
2022/09/03 04:20:39;;;;;;;2.17;1.50;;;15.20;84.10;;;;;;5035433;28;20044;-61
2022/09/03 04:23:07;;;;;;;3.78;1.77;;;;;;;;;;5053162;28;20087;-61
2022/09/03 04:25:33;;;;;;;5.22;1.80;;;15.20;95.40;;;;;;5053213;28;20123;-61
2022/09/03 04:28:02;;;;;;;4.55;1.65;;;;;;;;;;5052270;28;20032;-61
2022/09/03 04:30:28;;;;;;;4.13;1.65;;;15.00;96.30;;;;;;5051944;28;20088;-61
2022/09/03 04:32:54;;;;;;;4.38;1.83;;;15.00;94.40;;;;;;5053659;28;20064;-61
2022/09/03 04:35:24;;;;;;;6.70;1.67;;;15.00;86.10;;;;;;5053292;28;20045;-61
2022/09/03 04:37:50;;;;;;;4.45;1.85;;;;;;;;;;5053441;28;20393;-61
2022/09/03 04:40:16;;;;;;;3.85;1.80;;;15.10;96.70;;;;;;5053210;28;20086;-61
2022/09/03 04:42:44;;;;;;;8.70;1.92;;;14.20;96.90;;;;;;5053107;28;20091;-61
2022/09/03 04:45:10;;;;;;;4.15;1.90;;;15.00;97.00;;;;;;5052956;28;20056;-61
2022/09/03 04:47:37;;;;;;;3.95;1.70;;;;;;;;;;5052979;28;20040;-62
2022/09/03 04:50:06;;;;;;;3.70;1.80;;;14.80;88.20;;;;;;5052634;28;20077;-61
2022/09/03 04:52:32;;;;;;;2.65;1.70;;;14.00;97.50;;;;;;5053126;28;20037;-61
2022/09/03 04:54:58;;;;;;;3.78;1.88;;;;;;;;;;5052918;28;20114;-61
2022/09/03 04:57:33;;;;;;;4.63;1.80;;;;;;;;;;5053116;28;20037;-61
2022/09/03 04:59:59;;;;;;;4.47;1.70;;;14.80;97.90;;;;;;5053088;28;20036;-61
2022/09/03 05:02:25;;;;;;;7.18;1.88;;;14.80;96.80;;;;;;5052530;28;20056;-61
2022/09/03 05:04:52;;;;;;;3.72;1.80;;;;;;;;;;5052548;28;20198;-61
2022/09/03 05:07:19;;;;;;;4.82;2.25;;;14.80;98.80;;;;;;5052675;28;20041;-61
2022/09/03 05:09:45;;;;;;;3.40;1.77;;;14.60;99.00;;;;;;5052659;28;20120;-61
2022/09/03 05:12:11;;;;;;;3.88;2.08;;;13.60;98.70;;;;;;5052564;28;20115;-61
2022/09/03 05:14:37;;;;;;;7.82;1.88;;;14.90;99.20;;;;;;5052816;28;20167;-61
2022/09/03 05:17:05;;;;;;;5.00;2.20;;;14.70;91.00;;;;;;5052483;28;20536;-61
2022/09/03 05:19:34;;;;;;;4.70;2.10;;;14.90;99.40;;;;;;5052941;28;20367;-61
2022/09/03 05:22:03;;;;;;;10.77;2.03;;;14.80;99.50;;;;;;5052871;28;20041;-61
2022/09/03 05:24:28;;;;;;;6.20;2.05;;;14.70;99.80;;;;;;5052455;28;20457;-61
2022/09/03 05:26:56;;;;;;;6.07;2.00;;;13.70;99.60;;;;;;5052532;28;20033;-61
2022/09/03 05:29:22;;;;;;;4.95;1.92;;;14.70;99.90;;;;;;5052521;28;20045;-61
2022/09/03 05:31:47;;;;;;;2.70;1.80;;;14.70;97.80;;;;;;5052681;28;20044;-61
2022/09/03 05:34:13;;;;;;;10.15;2.10;;;15.30;99.90;;;;;;5052939;28;20036;-61
2022/09/03 05:36:39;;;;;;;6.00;1.80;;;15.70;98.70;;;;;;5052360;28;20472;-61
2022/09/03 05:39:05;;;;;;;5.15;2.10;;;16.50;88.80;;;;;;5056259;28;20028;-61
2022/09/03 05:41:32;;;;;;;5.45;1.98;;;16.60;92.70;;;;;;5056317;28;20624;-61
2022/09/03 05:44:02;;;;;;;14.10;2.47;;;17.50;91.50;;;;;;5056542;28;20115;-61
2022/09/03 05:46:31;;;;;;;5.28;2.00;;;18.20;90.40;;;;;;5056350;28;20045;-61
2022/09/03 05:49:06;;;;;;;5.38;2.20;;;18.70;89.70;;;;;;5056093;28;20485;-61
2022/09/03 05:51:33;;;;;;;6.00;2.10;;;18.50;88.40;;;;;;5056185;28;20037;-61
2022/09/03 05:53:59;;;;;;;2.83;2.00;;;19.10;85.70;;;;;;5056323;28;20045;-61
2022/09/03 05:56:29;;;;;;;3.30;1.90;;;19.30;85.20;;;;;;5054702;28;20045;-61
2022/09/03 05:58:59;;;;;;;3.20;2.00;;;19.50;83.60;;;;;;5055796;28;20484;-61
2022/09/03 06:01:27;;;;;;;3.85;1.90;;;20.20;81.80;;;;;;5071078;28;20057;-61
2022/09/03 06:04:02;;;;;;;4.68;2.20;;;21.10;80.80;;;;;;5055945;28;20044;-61
2022/09/03 06:06:30;;;;;;;5.07;2.20;;;20.80;79.10;;;;;;5056076;28;20037;-62
2022/09/03 06:09:09;;;;;;;4.13;1.83;;;20.90;78.20;;;;;;5056055;28;20079;-62
2022/09/03 06:11:38;;;;;;;4.10;2.10;;;21.20;76.40;;;;;;5054842;28;20036;-62
2022/09/03 06:14:09;;;;;;;5.00;2.00;;;21.40;77.00;;;;;;5056032;28;20116;-61
2022/09/03 06:16:40;;;;;;;8.85;1.95;;;21.60;74.10;;;;;;5055657;28;20037;-59
2022/09/03 06:19:08;;;;;;;8.13;2.10;;;21.80;73.60;;;;;;5055543;28;20129;-62
2022/09/03 06:21:41;;;;;;;5.65;2.10;;;22.00;72.40;;;;;;5055614;28;20067;-62
2022/09/03 06:24:26;;;;;;;6.43;2.00;;;22.50;72.60;;;;;;5055766;28;20388;-62
2022/09/03 06:26:52;;;;;;;7.97;2.00;;;22.80;74.60;;;;;;5055627;28;20116;-61
2022/09/03 06:29:19;;;;;;;4.43;2.00;;;23.00;70.00;;;;;;5055378;28;20520;-62
2022/09/03 06:31:47;;;;;;;3.78;1.90;;;22.70;69.20;;;;;;5055468;28;20099;-62
2022/09/03 06:34:13;;;;;;;5.05;2.00;;;23.10;68.60;;;;;;5055153;28;20041;-62
2022/09/03 06:36:42;;;;;;;5.57;1.92;;;23.10;67.40;;;;;;5054212;28;20041;-62
2022/09/03 06:39:08;;;;;;;5.25;1.80;;;23.20;67.30;;;;;;5055339;28;20040;-63
2022/09/03 06:41:34;;;;;;;4.93;2.10;;;24.00;65.00;;;;;;5055126;28;20037;-62
2022/09/03 06:44:03;;;;;;;5.00;2.10;;;23.90;56.20;;;;;;5055050;28;20049;-62
2022/09/03 06:46:32;;;;;;;8.63;2.17;;;24.20;63.90;;;;;;5055116;28;20041;-62
2022/09/03 06:48:57;;;;;;;3.78;1.95;;;24.60;63.90;;;;;;5054986;28;20110;-62
2022/09/03 06:51:25;;;;;;;8.68;2.00;;;24.50;63.90;;;;;;5055142;28;20116;-62
2022/09/03 06:53:58;;;;;;;4.35;1.80;;;24.30;65.00;;;;;;5054987;28;20049;-63
2022/09/03 06:56:25;;;;;;;4.70;2.28;;;24.80;62.50;;;;;;5054837;28;20045;-62
2022/09/03 06:58:56;;;;;;;5.60;2.20;;;25.00;52.50;;;;;;5059290;28;20412;-62
2022/09/03 07:01:29;;;;;;;4.85;2.00;;;25.00;55.20;;;;;;5074559;28;20144;-62
2022/09/03 07:03:59;;;;;;;5.88;2.22;;;24.90;60.90;;;;;;5075004;28;20049;-62
2022/09/03 07:06:27;;;;;;;6.68;2.10;;;25.30;60.40;;;;;;5074787;28;20047;-62
2022/09/03 07:08:54;;;;;;;4.03;1.90;;;25.70;60.50;;;;;;5073570;28;20045;-62
2022/09/03 07:11:22;;;;;;;5.82;2.00;;;26.40;59.70;;;;;;5075094;28;20033;-61
2022/09/03 07:13:50;;;;;;;7.85;2.20;;;26.10;58.80;;;;;;5074390;28;20188;-59
2022/09/03 07:16:19;;;;;;;8.10;1.90;;;26.50;64.10;;;;;;5074655;28;20040;-58
2022/09/03 07:18:45;;;;;;;4.85;1.80;;;25.60;58.50;;;;;;5074601;28;20036;-58
2022/09/03 07:21:14;;;;;;;6.32;2.10;;;25.10;58.00;;;;;;5074871;28;20053;-57
2022/09/03 07:23:40;;;;;;;4.63;1.85;;;25.80;49.40;;;;;;5074541;28;20032;-59
2022/09/03 07:26:11;;;;;;;5.38;1.90;;;25.50;58.60;;;;;;5074578;28;20044;-59
2022/09/03 07:28:39;;;;;;;8.13;2.10;;;25.90;58.40;;;;;;5074605;28;20443;-59
2022/09/03 07:31:12;;;;;;;8.80;1.90;;;26.00;58.10;;;;;;5074421;28;20040;-59
2022/09/03 07:33:38;;;;;;;4.40;1.77;;;25.90;59.20;;;;;;5073284;28;20036;-59
2022/09/03 07:36:13;;;;;;;8.55;1.90;;;25.10;62.20;;;;;;5074117;28;20476;-59
2022/09/03 07:38:40;;;;;;;8.35;1.95;;;26.20;57.40;;;;;;5074385;28;20047;-59
2022/09/03 07:41:08;;;;;;;3.03;1.90;;;26.80;49.20;;;;;;5074272;28;20048;-59
2022/09/03 07:43:38;;;;;;;4.47;2.00;;;25.50;57.40;;;;;;5073926;28;20036;-59
2022/09/03 07:46:05;;;;;;;7.30;1.90;;;25.60;57.80;;;;;;5074138;28;20048;-63
2022/09/03 07:48:33;;;;;;;7.10;2.30;;;25.70;62.10;;;;;;5074200;28;20112;-63
2022/09/03 07:51:00;;;;;;;5.72;2.03;;;26.30;48.30;;;;;;5073871;28;20125;-64
2022/09/03 07:53:27;;;;;;;8.20;1.80;;;26.10;57.60;;;;;;5073606;28;20047;-63
2022/09/03 07:55:59;;;;;;;4.57;1.90;;;26.50;58.30;;;;;;5073638;28;20150;-63
2022/09/03 07:58:28;;;;;;;4.53;1.80;;;26.00;57.60;;;;;;5073893;28;20125;-63
2022/09/03 08:00:55;;;;;;;5.60;1.88;;;26.60;57.70;;;;;;5072868;28;20032;-63
2022/09/03 08:03:23;;;;;;;7.47;2.00;;;26.80;57.40;;;;;;5073540;28;20488;-63
2022/09/03 08:05:49;;;;;;;4.28;1.98;;;26.60;57.00;;;;;;5073358;28;20040;-64
2022/09/03 08:08:16;;;;;;;9.10;2.13;;;26.50;58.90;;;;;;5073438;28;20047;-63
2022/09/03 08:10:42;;;;;;;10.82;2.00;;;25.40;58.20;;;;;;5057487;28;20082;-64
2022/09/03 08:13:09;;;;;;;8.07;1.90;;;25.20;60.40;;;;;;5072561;28;20044;-64
2022/09/03 08:15:39;;;;;;;8.10;1.80;;;24.60;61.30;;;;;;5072236;28;20514;-63
2022/09/03 08:18:07;;;;;;;3.75;1.90;;;24.30;53.40;;;;;;5070740;28;20063;-64
2022/09/03 08:20:33;;;;;;;8.23;2.10;;;24.20;54.10;;;;;;5071118;28;20380;-64
2022/09/03 08:23:02;;;;;;;3.90;1.80;;;23.90;64.10;;;;;;5070936;28;20109;-64
2022/09/03 08:25:29;;;;;;;4.47;2.30;;;23.50;66.40;;;;;;5072357;28;20048;-64
2022/09/03 08:27:58;;;;;;;3.85;1.70;;;23.10;64.20;;;;;;5072247;28;20036;-62
2022/09/03 08:30:27;;;;;;;3.30;1.70;;;24.00;67.50;;;;;;5072846;28;20097;-62
2022/09/03 08:32:54;;;;;;;6.28;1.95;;;23.60;65.10;;;;;;5058396;28;20041;-62
2022/09/03 08:35:22;;;;;;;5.47;1.80;;;23.90;65.80;;;;;;5052526;28;20033;-62
2022/09/03 08:37:50;;;;;;;4.72;1.70;;;22.30;65.30;;;;;;5052109;28;20064;-63
2022/09/03 08:40:17;;;;;;;4.28;1.90;;;22.90;57.40;;;;;;5052530;28;20101;-62
2022/09/03 08:42:54;;;;;;;4.07;1.90;;;22.60;66.30;;;;;;5051773;28;20044;-63
2022/09/03 08:45:20;;;;;;;4.82;1.83;;;23.30;67.80;;;;;;5051937;28;20037;-62
2022/09/03 08:47:55;;;;;;;6.43;1.83;;;22.90;58.60;;;;;;5051930;28;20048;-63
2022/09/03 08:50:25;;;;;;;3.25;1.70;;;23.70;69.70;;;;;;5050950;28;20120;-63
2022/09/03 08:53:17;;;;;;;7.15;2.05;;;23.80;67.90;;;;;;5051718;28;20050;-58
2022/09/03 08:55:58;;;;;;;8.18;1.92;;;23.80;56.70;;;;;;5047171;28;20501;-58
2022/09/03 08:58:31;;;;;;;6.30;2.00;;;24.30;63.80;;;;;;5049868;28;20547;-57
2022/09/03 09:01:16;;;;;;;5.57;1.90;;;24.70;66.50;;;;;;5049371;28;20467;-57
2022/09/03 09:04:01;;;;;;;8.85;1.73;;;24.40;54.10;;;;;;5049377;28;20080;-58
2022/09/03 09:06:54;;;;;;;15.82;2.08;;;24.30;54.30;;;;;;5049252;28;20052;-57
2022/09/03 09:09:31;;;;;;;6.78;1.95;;;24.20;62.90;;;;;;5049724;28;20048;-57
2022/09/03 09:12:14;;;;;;;8.30;1.90;;;23.80;64.50;;;;;;5049609;28;20044;-57
2022/09/03 09:14:43;;;;;;;12.57;1.90;;;23.60;64.80;;;;;;5052944;28;20043;-58
2022/09/03 09:17:20;;;;;;;8.02;2.00;;;22.50;67.00;;;;;;5053743;28;20120;-58
2022/09/03 09:19:55;;;;;;;6.85;2.00;;;23.40;68.30;;;;;;5053297;28;20095;-58
2022/09/03 09:22:37;;;;;;;3.80;1.70;;;23.20;57.60;;;;;;5053750;28;20044;-58
2022/09/03 09:25:13;;;;;;;6.55;1.83;;;22.90;65.60;;;;;;5040417;28;20531;-57
2022/09/03 09:27:53;;;;;;;9.82;1.80;;;23.20;65.80;;;;;;5033273;28;20072;-57
2022/09/03 09:30:19;;;;;;;11.25;2.10;;;23.00;66.40;;;;;;5033688;28;20041;-57
2022/09/03 09:32:46;;;;;;;3.45;1.77;;;23.40;57.90;;;;;;5058406;28;20074;-57
2022/09/03 09:35:15;;;;;;;4.72;1.60;;;23.80;66.30;;;;;;5075349;28;20492;-57
2022/09/03 09:37:55;;;;;;;7.57;1.90;;;23.30;65.00;;;;;;5076247;28;20047;-57
2022/09/03 09:40:27;;;;;;;5.47;1.70;;;23.70;57.50;;;;;;5076287;28;20075;-57
2022/09/03 09:43:20;;;;;;;7.95;1.90;;;23.80;57.70;;;;;;5076563;28;20040;-57
2022/09/03 09:45:49;;;;;;;11.40;1.90;;;23.80;57.20;;;;;;5076173;28;20087;-57
2022/09/03 09:48:34;;;;;;;7.97;1.80;;;23.80;57.30;;;;;;5076397;28;20040;-57
2022/09/03 09:51:10;;;;;;;7.93;2.03;;;23.80;57.50;;;;;;5076614;28;20033;-57
2022/09/03 09:53:38;;;;;;;9.30;1.90;;;23.90;57.50;;;;;;5075930;28;20480;-57
2022/09/03 09:56:04;;;;;;;13.02;2.00;;;24.00;67.50;;;;;;5075054;28;20045;-57
2022/09/03 09:58:31;;;;;;;7.72;1.73;;;24.50;64.70;;;;;;5075863;28;20052;-57
2022/09/03 10:01:21;;;;;;;10.18;1.98;;;24.00;57.00;;;;;;5075985;28;20397;-57
2022/09/03 10:03:55;;;;;;;6.20;1.65;;;24.10;57.00;;;;;;5076031;28;20051;-57
2022/09/03 10:09:18;;;;;;;8.13;1.70;;;24.20;56.20;;;;;;5076085;28;20119;-57
2022/09/03 10:11:50;;;;;;;4.50;1.80;;;24.40;56.00;;;;;;5076115;28;20044;-57
2022/09/03 10:14:33;;;;;;;7.95;1.73;;;24.60;63.10;;;;;;5075963;28;20185;-57
2022/09/03 10:17:21;;;;;;;4.75;1.80;;;24.70;55.50;;;;;;5075430;28;20043;-57
2022/09/03 10:20:30;;;;;;;9.57;1.70;;;25.00;62.20;;;;;;5075916;28;20036;-58
2022/09/03 10:23:03;;;;;;;6.20;1.77;;;24.60;64.00;;;;;;5075130;28;20045;-57
2022/09/03 10:25:38;;;;;;;5.20;1.65;;;24.70;54.90;;;;;;5075230;28;20071;-58
2022/09/03 10:28:09;;;;;;;2.80;1.50;;;25.30;61.00;;;;;;5074468;28;20036;-58
2022/09/03 10:31:16;;;;;;;7.28;1.80;;;24.70;61.70;;;;;;5074343;28;20037;-58
2022/09/03 10:33:58;;;;;;;17.23;1.52;;;24.90;53.60;;;;;;5055306;28;20055;-58
2022/09/03 10:36:33;;;;;;;13.05;1.80;;;25.20;60.70;;;;;;5055560;28;20405;-57
2022/09/03 10:39:09;;;;;;;3.78;1.58;;;25.00;54.10;;;;;;5054273;28;20166;-58
2022/09/03 10:42:05;;;;;;;3.65;1.88;;;25.00;53.60;;;;;;5055321;28;20041;-58
2022/09/03 10:44:43;;;;;;;5.30;1.60;;;25.00;53.40;;;;;;5055072;28;20044;-58
2022/09/03 10:47:10;;;;;;;4.25;1.60;;;25.00;53.70;;;;;;5055541;28;20404;-58
2022/09/03 10:50:00;;;;;;;6.63;1.40;;;25.10;53.20;;;;;;5055158;28;20037;-59
2022/09/03 10:52:29;;;;;;;3.70;1.67;;;25.10;52.50;;;;;;5053808;28;20072;-58
2022/09/03 10:55:07;;;;;;;4.70;1.67;;;25.00;60.00;;;;;;5056790;28;20397;-58
2022/09/03 10:58:09;;;;;;;11.90;1.80;;;25.00;52.40;;;;;;5073894;28;20067;-58
2022/09/03 11:00:52;;;;;;;8.80;1.63;;;25.10;52.60;;;;;;5043882;28;20040;-58
2022/09/03 11:03:40;;;;;;;4.25;1.60;;;25.20;57.90;;;;;;5031457;28;20068;-58
2022/09/03 11:06:18;;;;;;;8.38;1.77;;;25.30;51.70;;;;;;5039913;28;20500;-58
2022/09/03 11:09:09;;;;;;;8.75;1.83;;;25.20;51.70;;;;;;5051714;28;20424;-58
2022/09/03 11:11:44;;;;;;;4.60;1.50;;;25.10;52.00;;;;;;4953278;29;20183;-58
2022/09/03 11:14:14;;;;;;;8.32;1.65;;;25.10;51.80;;;;;;4953576;29;20388;-58
2022/09/03 11:16:50;;;;;;;6.32;1.90;;;25.30;52.10;;;;;;4953616;29;20051;-58
2022/09/03 11:19:19;;;;;;;15.20;2.00;;;25.40;51.40;;;;;;4953223;29;20126;-58
2022/09/03 11:21:47;;;;;;;5.85;1.70;;;25.40;51.40;;;;;;4953340;29;20055;-61
2022/09/03 11:24:33;;;;;;;15.30;2.33;;;25.30;51.10;;;;;;4953134;29;20122;-58
2022/09/03 11:27:09;;;;;;;8.73;1.60;;;25.50;58.30;;;;;;4953359;29;20475;-58
2022/09/03 11:29:41;;;;;;;4.95;1.50;;;25.30;51.20;;;;;;4952436;28;20521;-58
2022/09/03 11:32:17;;;;;;;4.90;1.60;;;25.00;58.50;;;;;;4953156;29;20039;-59
2022/09/03 11:34:47;;;;;;;10.23;2.10;;;25.50;51.30;;;;;;4963495;28;20046;-58
2022/09/03 11:37:27;;;;;;;10.23;2.00;;;25.50;50.40;;;;;;4973274;28;20495;-59
2022/09/03 11:40:02;;;;;;;11.52;1.95;;;25.60;50.40;;;;;;4973332;28;20066;-58
2022/09/03 11:42:31;;;;;;;6.93;1.75;;;25.60;50.20;;;;;;4973175;28;20125;-58
2022/09/03 11:45:12;;;;;;;7.38;1.70;;;25.50;49.80;;;;;;4973193;28;20055;-58
2022/09/03 11:47:41;;;;;;;10.70;1.88;;;25.50;49.90;;;;;;4969590;28;20050;-58
2022/09/03 11:50:19;;;;;;;7.88;1.70;;;25.50;49.80;;;;;;5073816;28;20048;-58
2022/09/03 11:53:04;;;;;;;6.80;1.73;;;25.30;57.90;;;;;;5073854;28;20047;-58
2022/09/03 11:55:52;;;;;;;7.25;1.60;;;26.70;56.80;;;;;;5071905;28;20047;-58
2022/09/03 11:58:33;;;;;;;11.43;1.70;;;25.70;57.20;;;;;;5072762;28;20044;-58
2022/09/03 12:01:09;;;;;;;6.00;1.55;;;25.80;49.40;;;;;;5073519;28;20071;-59
2022/09/03 12:04:04;;;;;;;6.10;1.60;;;26.00;49.40;;;;;;5072403;28;20055;-58
2022/09/03 12:06:53;;;;;;;6.00;1.60;;;25.60;56.30;;;;;;5073655;28;20040;-58
2022/09/03 12:09:57;;;;;;;7.43;1.60;;;26.50;55.60;;;;;;5073520;28;20036;-58
2022/09/03 12:12:40;;;;;;;6.82;1.55;;;26.20;48.40;;;;;;5061898;28;20052;-58
2022/09/03 12:15:08;;;;;;;6.22;1.70;;;26.30;48.60;;;;;;5072730;28;20045;-58
2022/09/03 12:20:40;;;;;;;3.60;1.37;;;26.40;48.10;;;;;;5073500;28;20438;-58
2022/09/03 12:23:09;;;;;;;5.85;1.70;;;26.50;48.10;;;;;;5072414;28;20039;-58
2022/09/03 12:25:48;;;;;;;9.55;1.65;;;26.50;48.10;;;;;;5072954;28;20044;-58
2022/09/03 12:28:22;;;;;;;7.97;1.88;;;26.60;47.50;;;;;;5072946;28;20087;-58
2022/09/03 12:30:52;;;;;;;4.50;1.60;;;26.80;46.60;;;;;;5072323;28;20029;-58
2022/09/03 12:33:21;;;;;;;18.38;1.70;;;27.00;54.70;;;;;;5073454;28;20423;-58
2022/09/03 12:35:58;;;;;;;2.15;1.52;;;26.80;47.30;;;;;;5073457;28;20047;-58
2022/09/03 12:38:25;;;;;;;5.07;1.58;;;26.80;47.00;;;;;;5073068;28;20037;-58
2022/09/03 12:40:53;;;;;;;3.63;1.80;;;26.90;47.30;;;;;;5073219;28;20048;-58
2022/09/03 12:43:19;;;;;;;9.65;1.70;;;27.00;47.20;;;;;;5073291;28;20072;-59
2022/09/03 12:45:48;;;;;;;5.78;1.58;;;27.10;47.10;;;;;;5071758;28;20094;-58
2022/09/03 12:48:19;;;;;;;4.65;1.70;;;27.00;46.90;;;;;;5073349;28;20041;-59
2022/09/03 12:50:47;;;;;;;2.83;1.50;;;26.60;54.70;;;;;;5071999;28;20041;-58
2022/09/03 12:53:23;;;;;;;5.43;1.67;;;27.00;54.70;;;;;;5072002;28;20052;-58
2022/09/03 12:55:53;;;;;;;6.38;1.50;;;27.00;47.30;;;;;;5073243;28;20074;-58
2022/09/03 12:58:43;;;;;;;5.72;1.33;;;26.90;50.90;;;;;;5072796;28;20037;-59
2022/09/03 13:01:09;;;;;;;4.18;1.52;;;26.90;54.70;;;;;;5072729;28;20044;-59
2022/09/03 13:03:56;;;;;;;4.70;1.40;;;27.10;47.10;;;;;;5073201;28;20056;-59
2022/09/03 13:06:31;;;;;;;18.98;2.85;;;27.00;46.80;;;;;;5072955;28;20063;-59
2022/09/03 13:09:02;;;;;;;5.65;1.58;;;27.10;46.90;;;;;;5073271;28;20119;-58
2022/09/03 13:11:31;;;;;;;5.30;1.50;;;27.10;47.00;;;;;;5073167;28;20361;-59
2022/09/03 13:14:13;;;;;;;3.17;1.58;;;27.30;47.00;;;;;;5071818;28;20041;-58
2022/09/03 13:16:44;;;;;;;7.22;1.50;;;27.50;46.60;;;;;;5072819;28;20514;-59
2022/09/03 13:19:34;;;;;;;3.83;1.40;;;27.60;46.30;;;;;;5072693;28;20123;-60
2022/09/03 13:22:13;;;;;;;5.47;1.60;;;27.60;46.30;;;;;;5073074;28;20043;-58
2022/09/03 13:24:51;;;;;;;4.80;1.50;;;27.80;46.50;;;;;;5072739;28;20074;-58
2022/09/03 13:27:28;;;;;;;7.88;1.75;;;27.90;46.10;;;;;;5072942;28;20064;-58